Time;durP1;ratioP1;P1;durP2;ratioP2;P2;SDS_P1;SDS_P2;PMS_P1;PMS_P2;Temp;Humidity;BMP_temperature;BMP_pressure;BME280_temperature;BME280_humidity;BME280_pressure;Samples;Min_cycle;Max_cycle;Signal;HPM_P1;HPM_P2
2021/10/20 00:00:42;;;;;;;11.18;8.02;;;;;;;14.92;85.79;100922.63;5013881;28;20109;-38
2021/10/20 00:03:07;;;;;;;13.20;8.00;;;;;;;14.94;85.83;100919.84;5014683;28;20483;-38
2021/10/20 00:05:32;;;;;;;12.95;7.82;;;;;;;14.93;85.70;100918.22;5013822;28;20025;-39
2021/10/20 00:08:00;;;;;;;14.00;8.07;;;;;;;14.92;85.80;100916.63;5013733;28;20040;-38
2021/10/20 00:10:25;;;;;;;12.95;7.85;;;;;;;14.92;85.58;100921.84;5013972;28;20059;-39
2021/10/20 00:12:51;;;;;;;10.65;7.32;;;;;;;14.86;85.82;100913.88;5013750;28;20160;-39
2021/10/20 00:15:20;;;;;;;16.52;7.78;;;;;;;14.78;86.04;100903.72;5013692;28;20022;-39
2021/10/20 00:17:46;;;;;;;12.40;8.05;;;;;;;14.76;85.84;100900.56;5013656;28;20022;-38
2021/10/20 00:20:15;;;;;;;12.50;7.70;;;;;;;14.76;85.85;100902.34;5013523;28;20117;-38
2021/10/20 00:22:41;;;;;;;11.40;7.85;;;;;;;14.76;85.63;100886.72;5013858;28;20040;-39
2021/10/20 00:25:08;;;;;;;12.70;8.13;;;;;;;14.76;85.66;100889.31;5013916;28;20484;-38
2021/10/20 00:27:33;;;;;;;14.70;7.55;;;;;;;14.71;85.68;100881.38;5013463;28;20037;-38
2021/10/20 00:29:59;;;;;;;13.20;7.72;;;;;;;14.72;85.43;100880.38;5013863;28;20049;-39
2021/10/20 00:32:24;;;;;;;11.93;7.25;;;;;;;14.71;85.15;100878.78;5013799;28;20101;-38
2021/10/20 00:34:50;;;;;;;13.25;6.85;;;;;;;14.72;84.87;100870.75;5013580;28;20030;-38
2021/10/20 00:37:15;;;;;;;10.75;7.18;;;;;;;14.71;85.07;100866.56;5013475;28;20096;-37
2021/10/20 00:39:41;;;;;;;14.43;7.82;;;;;;;14.71;84.69;100866.56;5013501;28;20092;-38
2021/10/20 00:42:06;;;;;;;9.98;6.80;;;;;;;14.70;84.82;100870.16;5013151;28;20124;-38
2021/10/20 00:44:51;;;;;;;9.85;6.65;;;;;;;14.68;84.71;100863.59;4996595;28;20026;-38
2021/10/20 00:47:17;;;;;;;15.32;6.65;;;;;;;14.49;84.25;100821.88;5013663;28;20106;-38
2021/10/20 00:49:43;;;;;;;11.43;6.95;;;;;;;14.75;83.98;100866.94;5013355;28;20042;-37
2021/10/20 00:52:08;;;;;;;8.13;6.40;;;;;;;14.74;83.91;100863.53;5013616;28;20040;-37
2021/10/20 00:54:35;;;;;;;13.23;6.50;;;;;;;14.76;83.72;100855.50;5013331;28;20025;-39
2021/10/20 00:57:00;;;;;;;10.38;6.43;;;;;;;14.75;83.62;100859.13;5013390;28;20030;-39
2021/10/20 00:59:26;;;;;;;14.38;6.45;;;;;;;14.82;83.10;100850.28;5013363;28;20080;-38
2021/10/20 01:01:51;;;;;;;10.75;6.38;;;;;;;14.83;82.76;100851.84;5013841;28;20022;-38
2021/10/20 01:04:16;;;;;;;9.00;5.90;;;;;;;14.79;82.85;100842.91;5013247;28;20366;-39
2021/10/20 01:06:42;;;;;;;10.95;6.40;;;;;;;14.86;82.37;100837.63;5013746;28;20247;-38
2021/10/20 01:09:07;;;;;;;12.55;6.47;;;;;;;14.80;82.62;100841.09;5017179;28;20022;-38
2021/10/20 01:11:32;;;;;;;11.85;6.38;;;;;;;14.80;82.45;100828.88;5016990;28;20033;-39
2021/10/20 01:13:58;;;;;;;14.75;6.47;;;;;;;14.82;82.17;100829.47;5016835;28;20032;-36
2021/10/20 01:16:23;;;;;;;12.75;6.82;;;;;;;14.82;82.22;100818.28;5016785;28;20546;-38
2021/10/20 01:18:49;;;;;;;9.45;6.50;;;;;;;14.82;81.91;100813.06;5016769;28;20381;-39
2021/10/20 01:21:19;;;;;;;8.63;6.28;;;;;;;14.87;81.36;100821.81;5016784;28;20033;-38
2021/10/20 01:23:46;;;;;;;8.85;5.90;;;;;;;14.94;81.17;100815.75;5016673;28;20113;-38
2021/10/20 01:26:12;;;;;;;12.98;6.38;;;;;;;14.97;80.59;100815.31;5016661;28;20366;-38
2021/10/20 01:28:37;;;;;;;12.35;6.68;;;;;;;15.00;80.59;100815.69;5016787;28;20033;-39
2021/10/20 01:31:03;;;;;;;13.18;6.70;;;;;;;14.96;80.93;100805.91;5016579;28;20033;-38
2021/10/20 01:33:28;;;;;;;11.85;6.53;;;;;;;14.94;80.78;100806.13;5016571;28;20025;-38
2021/10/20 01:35:53;;;;;;;11.52;6.45;;;;;;;15.01;80.13;100786.03;5016936;28;20029;-38
2021/10/20 01:38:18;;;;;;;12.98;6.90;;;;;;;14.95;80.51;100801.72;5016980;28;20014;-37
2021/10/20 01:40:44;;;;;;;11.85;6.90;;;;;;;14.96;80.25;100816.31;5016357;28;20028;-36
2021/10/20 01:43:09;;;;;;;13.77;6.90;;;;;;;14.76;79.93;100769.66;5016187;28;20041;-38
2021/10/20 01:45:35;;;;;;;12.90;6.90;;;;;;;14.96;80.15;100798.91;4998677;28;20072;-39
2021/10/20 01:48:00;;;;;;;17.60;6.63;;;;;;;14.96;80.30;100811.13;5016136;28;20073;-37
2021/10/20 01:50:25;;;;;;;14.98;6.97;;;;;;;15.00;79.96;100786.28;5016231;28;20056;-38
2021/10/20 01:52:50;;;;;;;11.65;6.93;;;;;;;14.95;80.01;100781.69;5016181;28;20041;-38
2021/10/20 01:55:16;;;;;;;12.55;6.75;;;;;;;14.94;79.99;100776.72;5016117;28;20030;-39
2021/10/20 01:57:42;;;;;;;11.15;6.35;;;;;;;14.93;80.24;100773.31;5016112;28;20033;-37
2021/10/20 02:00:08;;;;;;;12.85;6.82;;;;;;;14.83;80.90;100779.00;5016001;28;20022;-37
2021/10/20 02:02:34;;;;;;;13.80;7.22;;;;;;;14.93;80.25;100769.91;5016012;28;20037;-37
2021/10/20 02:04:59;;;;;;;12.70;7.32;;;;;;;14.68;80.10;100746.56;5015912;28;20072;-38
2021/10/20 02:07:25;;;;;;;14.43;7.50;;;;;;;14.96;79.79;100772.09;5016168;28;20083;-43
2021/10/20 02:09:51;;;;;;;15.48;7.40;;;;;;;14.96;79.78;100769.47;5016259;28;20350;-38
2021/10/20 02:12:16;;;;;;;23.00;7.43;;;;;;;14.93;79.84;100767.31;5015803;28;20032;-38
2021/10/20 02:14:41;;;;;;;14.27;7.75;;;;;;;14.88;80.01;100760.16;5015751;28;20492;-38
2021/10/20 02:17:07;;;;;;;14.00;7.45;;;;;;;14.93;79.91;100743.91;4998262;28;20022;-38
2021/10/20 02:19:32;;;;;;;12.50;7.35;;;;;;;14.83;80.01;100734.00;5015492;28;20417;-38
2021/10/20 02:21:58;;;;;;;12.45;7.85;;;;;;;14.86;80.13;100733.56;5015869;28;20380;-38
2021/10/20 02:24:24;;;;;;;12.85;7.00;;;;;;;14.86;80.02;100726.56;5016360;28;20033;-37
2021/10/20 02:26:49;;;;;;;11.68;7.60;;;;;;;14.82;80.21;100729.81;5015549;28;20034;-38
2021/10/20 02:29:15;;;;;;;13.85;8.10;;;;;;;14.85;79.96;100717.16;5015607;28;20025;-38
2021/10/20 02:31:46;;;;;;;12.63;7.70;;;;;;;14.86;80.01;100720.56;5015422;28;20053;-38
2021/10/20 02:34:16;;;;;;;12.75;7.70;;;;;;;14.78;80.45;100720.84;5015684;28;20105;-37
2021/10/20 02:36:43;;;;;;;14.80;8.15;;;;;;;14.82;80.00;100714.22;5015812;28;20030;-38
2021/10/20 02:39:09;;;;;;;14.15;8.15;;;;;;;14.82;79.88;100704.59;5015821;28;20380;-38
2021/10/20 02:41:35;;;;;;;14.57;7.78;;;;;;;14.93;79.58;100712.66;5014893;28;20021;-39
2021/10/20 02:44:01;;;;;;;20.67;7.93;;;;;;;14.88;79.60;100710.75;5015183;28;20431;-38
2021/10/20 02:46:26;;;;;;;13.07;7.95;;;;;;;14.85;79.71;100698.97;4997574;28;20061;-39
2021/10/20 02:48:52;;;;;;;11.88;8.02;;;;;;;14.92;79.32;100708.50;5015047;28;20022;-37
2021/10/20 02:51:17;;;;;;;13.60;7.82;;;;;;;14.87;79.48;100701.31;5015259;28;20021;-37
2021/10/20 02:53:42;;;;;;;18.02;8.13;;;;;;;14.89;79.32;100700.09;5014941;28;20036;-38
2021/10/20 02:56:07;;;;;;;14.38;7.82;;;;;;;14.90;79.09;100690.47;5015225;28;20025;-38
2021/10/20 02:58:33;;;;;;;14.05;8.18;;;;;;;14.85;79.09;100678.13;5014939;28;20106;-38
2021/10/20 03:00:58;;;;;;;14.38;7.97;;;;;;;14.92;78.81;100669.47;4997337;28;20026;-38
2021/10/20 03:03:23;;;;;;;14.20;8.23;;;;;;;14.97;78.43;100672.22;5014838;28;20026;-38
2021/10/20 03:05:49;;;;;;;14.43;8.70;;;;;;;14.96;78.56;100666.22;4997940;28;20025;-38
2021/10/20 03:08:14;;;;;;;13.90;8.32;;;;;;;14.99;78.65;100664.97;5015041;28;20068;-38
2021/10/20 03:10:40;;;;;;;17.15;8.30;;;;;;;14.98;78.67;100665.97;5015039;28;20516;-37
2021/10/20 03:13:06;;;;;;;16.58;7.78;;;;;;;14.95;78.52;100651.59;5014964;28;20384;-38
2021/10/20 03:15:31;;;;;;;12.57;8.13;;;;;;;14.94;78.06;100638.81;5014589;28;20032;-38
2021/10/20 03:17:56;;;;;;;14.30;8.18;;;;;;;14.98;78.58;100656.38;5014542;28;20076;-38
2021/10/20 03:20:22;;;;;;;19.98;8.27;;;;;;;15.04;78.14;100654.69;5014827;28;20025;-38
2021/10/20 03:22:47;;;;;;;17.00;7.88;;;;;;;15.05;78.01;100644.09;4996867;28;20021;-38
2021/10/20 03:25:13;;;;;;;14.48;8.52;;;;;;;15.05;77.66;100641.47;5015265;28;20025;-38
2021/10/20 03:27:40;;;;;;;14.43;8.43;;;;;;;15.13;77.32;100640.38;5014280;28;20148;-38
2021/10/20 03:30:06;;;;;;;13.77;8.18;;;;;;;15.07;77.32;100631.63;5013835;28;20048;-39
2021/10/20 03:32:31;;;;;;;13.32;8.15;;;;;;;15.11;77.22;100650.22;5014607;28;20029;-39
2021/10/20 03:34:56;;;;;;;14.25;8.85;;;;;;;15.10;77.44;100640.81;5014346;28;20330;-41
2021/10/20 03:37:22;;;;;;;15.45;8.48;;;;;;;15.08;77.45;100635.84;5014259;28;20224;-38
2021/10/20 03:39:47;;;;;;;16.98;8.32;;;;;;;15.08;77.47;100642.84;5014422;28;20027;-38
2021/10/20 03:42:13;;;;;;;12.75;7.95;;;;;;;15.09;77.07;100634.81;4980146;28;20500;-37
2021/10/20 03:44:38;;;;;;;15.45;8.23;;;;;;;15.16;77.28;100649.53;5014109;28;20033;-38
2021/10/20 03:47:03;;;;;;;16.40;8.90;;;;;;;15.14;77.14;100644.56;5014137;28;20022;-38
2021/10/20 03:49:28;;;;;;;14.35;8.68;;;;;;;15.20;77.00;100642.91;5013903;28;20046;-37
2021/10/20 03:51:54;;;;;;;16.73;8.50;;;;;;;15.22;76.81;100646.88;5014375;28;20033;-37
2021/10/20 03:54:19;;;;;;;13.75;8.45;;;;;;;15.20;77.14;100641.09;5014064;28;20025;-38
2021/10/20 03:56:44;;;;;;;22.33;9.40;;;;;;;15.27;76.71;100636.56;5014017;28;20384;-38
2021/10/20 03:59:09;;;;;;;16.50;9.07;;;;;;;15.34;76.21;100629.47;5014177;28;20024;-39
2021/10/20 04:01:35;;;;;;;17.48;9.05;;;;;;;15.27;76.39;100618.34;5014084;28;20552;-38
2021/10/20 04:04:00;;;;;;;13.70;8.60;;;;;;;15.31;76.25;100619.50;5014159;28;20029;-39
2021/10/20 04:06:25;;;;;;;14.00;8.80;;;;;;;15.27;75.79;100597.53;5013863;28;20029;-38
2021/10/20 04:08:50;;;;;;;17.80;9.38;;;;;;;15.35;75.84;100606.84;5014064;28;20022;-38
2021/10/20 04:11:16;;;;;;;18.13;9.27;;;;;;;15.29;76.15;100599.91;5014042;28;20028;-39
2021/10/20 04:13:41;;;;;;;16.88;9.15;;;;;;;15.36;75.60;100611.00;5013747;28;20028;-37
2021/10/20 04:16:09;;;;;;;14.35;9.02;;;;;;;15.33;75.77;100595.84;4996520;28;20021;-37
2021/10/20 04:18:34;;;;;;;15.77;8.77;;;;;;;15.25;76.10;100598.78;4996956;28;20053;-38
2021/10/20 04:20:59;;;;;;;15.32;9.55;;;;;;;15.23;76.49;100585.97;5013759;28;20053;-37
2021/10/20 04:23:25;;;;;;;17.20;9.40;;;;;;;15.26;76.26;100566.53;5013683;28;20029;-37
2021/10/20 04:25:50;;;;;;;16.02;9.27;;;;;;;15.29;75.92;100569.47;4996860;28;20022;-39
2021/10/20 04:28:15;;;;;;;13.05;9.45;;;;;;;15.35;75.80;100576.38;5013664;28;20026;-36
2021/10/20 04:30:40;;;;;;;15.80;9.25;;;;;;;15.33;76.08;100565.41;5013900;28;20026;-37
2021/10/20 04:33:06;;;;;;;15.77;9.48;;;;;;;15.33;75.92;100562.81;5013567;28;20022;-38
2021/10/20 04:35:31;;;;;;;18.58;9.70;;;;;;;15.37;76.15;100559.75;5013844;28;20388;-38
2021/10/20 04:37:57;;;;;;;15.35;9.23;;;;;;;15.40;75.59;100565.31;5013541;28;20022;-38
2021/10/20 04:40:22;;;;;;;18.08;9.13;;;;;;;15.44;75.92;100573.47;5013826;28;20030;-38
2021/10/20 04:42:47;;;;;;;17.85;9.38;;;;;;;15.44;75.56;100561.22;5015286;28;20057;-38
2021/10/20 04:45:13;;;;;;;18.83;9.10;;;;;;;15.47;75.53;100550.38;4999787;28;20389;-37
2021/10/20 04:47:38;;;;;;;15.85;9.30;;;;;;;15.50;75.23;100554.31;5017581;28;20024;-37
2021/10/20 04:50:06;;;;;;;14.98;9.15;;;;;;;15.53;75.50;100538.25;5017867;28;20029;-36
2021/10/20 04:52:33;;;;;;;13.18;9.20;;;;;;;15.59;75.09;100537.34;4999703;28;20029;-38
2021/10/20 04:54:59;;;;;;;13.95;8.93;;;;;;;15.62;75.05;100547.31;5017442;28;20065;-38
2021/10/20 04:57:24;;;;;;;15.82;8.43;;;;;;;15.64;74.90;100540.06;5017128;28;20045;-37
2021/10/20 04:59:49;;;;;;;13.50;8.98;;;;;;;15.61;75.18;100539.75;5017136;28;20045;-37
2021/10/20 05:02:14;;;;;;;16.77;9.25;;;;;;;15.54;75.73;100532.84;5017396;28;20025;-37
2021/10/20 05:04:40;;;;;;;15.77;8.77;;;;;;;15.55;75.55;100539.63;5017355;28;20022;-37
2021/10/20 05:07:05;;;;;;;12.32;8.45;;;;;;;15.46;75.76;100522.75;5017053;28;20492;-35
2021/10/20 05:09:31;;;;;;;15.77;9.18;;;;;;;15.55;75.67;100541.44;4999307;28;20062;-38
2021/10/20 05:11:56;;;;;;;19.65;9.95;;;;;;;15.54;76.25;100547.66;5016902;28;20176;-37
2021/10/20 05:14:22;;;;;;;17.30;8.82;;;;;;;15.50;77.11;100549.91;5017151;28;20030;-37
2021/10/20 05:16:48;;;;;;;16.50;9.70;;;;;;;15.39;77.78;100539.47;5016791;28;20070;-37
2021/10/20 05:19:13;;;;;;;14.35;8.98;;;;;;;15.40;77.64;100544.47;4999138;28;20118;-37
2021/10/20 05:21:38;;;;;;;16.25;9.70;;;;;;;15.41;78.06;100543.44;5017070;28;20022;-37
2021/10/20 05:24:04;;;;;;;13.88;9.18;;;;;;;15.45;77.83;100528.97;5017034;28;20500;-38
2021/10/20 05:26:29;;;;;;;20.08;10.23;;;;;;;15.55;77.38;100525.81;5016992;28;20036;-38
2021/10/20 05:28:54;;;;;;;19.25;10.13;;;;;;;15.58;77.47;100515.72;5016515;28;20030;-38
2021/10/20 05:31:19;;;;;;;18.48;10.18;;;;;;;15.60;77.48;100512.91;5016585;28;20025;-39
2021/10/20 05:33:45;;;;;;;15.88;9.50;;;;;;;15.67;76.84;100510.97;4999005;28;20101;-38
2021/10/20 05:36:10;;;;;;;19.73;9.75;;;;;;;15.74;76.49;100505.69;5017044;28;20038;-38
2021/10/20 05:38:36;;;;;;;14.38;9.57;;;;;;;15.73;76.77;100501.47;5016683;28;20025;-38
2021/10/20 05:41:02;;;;;;;18.33;10.20;;;;;;;15.75;76.66;100505.44;5016369;28;20507;-38
2021/10/20 05:43:27;;;;;;;16.65;9.60;;;;;;;15.76;76.15;100495.81;5016236;28;20093;-39
2021/10/20 05:45:54;;;;;;;16.85;9.77;;;;;;;15.85;75.94;100501.47;5016524;28;20061;-38
2021/10/20 05:48:22;;;;;;;15.65;9.82;;;;;;;15.89;75.59;100485.16;5016499;28;20022;-37
2021/10/20 05:50:49;;;;;;;17.58;9.55;;;;;;;15.91;75.90;100490.94;5016427;28;20468;-38
2021/10/20 05:53:14;;;;;;;15.95;10.00;;;;;;;15.84;76.12;100502.50;5015874;28;20097;-38
2021/10/20 05:55:40;;;;;;;20.20;10.30;;;;;;;15.79;76.47;100485.75;5016158;28;20499;-37
2021/10/20 05:58:06;;;;;;;16.33;9.55;;;;;;;15.75;77.03;100483.81;5015979;28;20030;-38
2021/10/20 06:00:32;;;;;;;15.68;9.00;;;;;;;15.75;76.62;100463.78;5016220;28;20030;-39
2021/10/20 06:02:58;;;;;;;12.05;8.85;;;;;;;15.72;76.58;100459.03;5015877;28;20022;-37
2021/10/20 06:05:23;;;;;;;12.90;9.02;;;;;;;15.68;76.67;100455.28;5016228;28;20076;-38
2021/10/20 06:07:48;;;;;;;18.45;9.20;;;;;;;15.65;77.11;100460.13;5015823;28;20022;-39
2021/10/20 06:10:15;;;;;;;17.55;9.32;;;;;;;15.61;77.10;100451.19;5015851;28;20026;-38
2021/10/20 06:12:41;;;;;;;14.40;8.85;;;;;;;15.64;77.77;100438.50;4998259;28;20140;-38
2021/10/20 06:15:07;;;;;;;16.17;9.38;;;;;;;15.63;78.16;100444.72;5016036;28;20022;-37
2021/10/20 06:17:36;;;;;;;21.08;9.10;;;;;;;15.70;78.28;100448.03;5015965;28;20492;-39
2021/10/20 06:20:04;;;;;;;16.80;9.15;;;;;;;15.65;79.01;100450.50;5015655;28;20018;-38
2021/10/20 06:22:29;;;;;;;16.05;8.55;;;;;;;15.65;79.16;100437.50;5015591;28;20029;-39
2021/10/20 06:24:55;;;;;;;13.93;8.52;;;;;;;15.56;78.83;100412.78;5015533;28;20026;-38
2021/10/20 06:27:20;;;;;;;16.77;8.88;;;;;;;15.68;79.14;100436.25;5015494;28;20062;-38
2021/10/20 06:29:46;;;;;;;18.23;9.27;;;;;;;15.69;78.67;100423.00;5015684;28;20408;-38
2021/10/20 06:32:11;;;;;;;15.73;9.18;;;;;;;15.63;79.05;100407.47;5015436;28;20493;-38
2021/10/20 06:34:36;;;;;;;14.05;8.82;;;;;;;15.61;78.72;100404.31;4997862;28;20077;-38
2021/10/20 06:37:02;;;;;;;14.77;8.02;;;;;;;15.56;78.45;100403.19;5015326;28;20034;-40
2021/10/20 06:39:28;;;;;;;16.27;8.60;;;;;;;15.56;78.37;100412.78;5015260;28;20017;-38
2021/10/20 06:41:53;;;;;;;14.38;7.80;;;;;;;15.54;78.61;100404.44;5015787;28;20132;-38
2021/10/20 06:44:19;;;;;;;11.35;7.28;;;;;;;15.54;78.74;100413.03;5015098;28;20034;-38
2021/10/20 06:46:45;;;;;;;11.98;7.30;;;;;;;15.52;78.11;100430.69;5015000;28;20014;-38
2021/10/20 06:49:10;;;;;;;13.20;7.20;;;;;;;15.49;78.27;100435.56;5014862;28;20036;-37
2021/10/20 06:51:35;;;;;;;13.50;7.57;;;;;;;15.49;78.63;100435.56;5015225;28;20088;-38
2021/10/20 06:54:01;;;;;;;16.35;7.53;;;;;;;15.44;78.87;100456.28;5014917;28;20026;-40
2021/10/20 06:56:26;;;;;;;12.63;6.80;;;;;;;15.20;79.11;100425.03;5014761;28;20026;-37
2021/10/20 06:58:51;;;;;;;11.65;7.40;;;;;;;15.38;79.66;100452.78;5014736;28;20038;-36
2021/10/20 07:01:17;;;;;;;18.40;7.40;;;;;;;15.28;81.38;100447.34;5014707;28;20029;-38
2021/10/20 07:03:43;;;;;;;14.93;7.85;;;;;;;15.09;81.72;100418.03;5014638;28;20083;-37
2021/10/20 07:06:09;;;;;;;13.15;6.70;;;;;;;15.11;82.86;100445.41;4996343;28;20026;-36
2021/10/20 07:08:34;;;;;;;14.65;7.30;;;;;;;15.06;83.38;100427.06;5014608;28;20037;-39
2021/10/20 07:11:00;;;;;;;15.40;6.97;;;;;;;14.93;84.55;100411.66;5014707;28;20168;-37
2021/10/20 07:13:25;;;;;;;12.40;7.10;;;;;;;14.84;85.20;100400.78;5014574;28;20045;-38
2021/10/20 07:15:50;;;;;;;12.68;7.32;;;;;;;14.79;85.55;100392.88;5014754;28;20026;-38
2021/10/20 07:18:16;;;;;;;12.73;7.75;;;;;;;14.74;86.05;100394.56;5014611;28;20084;-37
2021/10/20 07:20:41;;;;;;;11.45;7.05;;;;;;;14.70;85.90;100388.22;4996793;28;20113;-38
2021/10/20 07:23:06;;;;;;;13.02;7.00;;;;;;;14.44;86.81;100322.56;5014703;28;20021;-38
2021/10/20 07:25:32;;;;;;;12.15;7.15;;;;;;;14.65;87.00;100340.28;5014344;28;20476;-39
2021/10/20 07:27:57;;;;;;;13.07;7.57;;;;;;;14.71;86.53;100332.59;5014249;28;20392;-36
2021/10/20 07:30:22;;;;;;;11.82;7.07;;;;;;;14.71;86.32;100328.19;4996591;28;20033;-38
2021/10/20 07:32:48;;;;;;;15.35;7.38;;;;;;;14.69;86.97;100319.81;5014258;28;20022;-37
2021/10/20 07:35:15;;;;;;;10.73;7.10;;;;;;;14.65;86.86;100303.06;4996490;28;20018;-38
2021/10/20 07:37:41;;;;;;;11.15;7.50;;;;;;;14.60;87.04;100279.53;5014390;28;20100;-38
2021/10/20 07:40:08;;;;;;;11.40;7.07;;;;;;;14.57;87.71;100267.78;5014323;28;20528;-41
2021/10/20 07:42:36;;;;;;;11.18;7.35;;;;;;;14.52;87.77;100272.88;5013956;28;20081;-40
2021/10/20 07:45:03;;;;;;;20.77;7.82;;;;;;;14.53;87.58;100294.44;5014390;28;20034;-41
2021/10/20 07:47:29;;;;;;;15.35;8.20;;;;;;;14.50;87.96;100292.28;5014285;28;20084;-39
2021/10/20 07:49:54;;;;;;;11.95;7.25;;;;;;;14.45;88.26;100282.56;5014053;28;20061;-40
2021/10/20 07:52:23;;;;;;;12.95;7.40;;;;;;;14.41;88.41;100278.81;5014060;28;20473;-38
2021/10/20 07:54:49;;;;;;;16.85;8.15;;;;;;;14.40;88.55;100277.22;5013764;28;20032;-38
2021/10/20 07:57:14;;;;;;;10.93;6.95;;;;;;;14.40;88.24;100285.03;5014046;28;20061;-38
2021/10/20 07:59:39;;;;;;;11.82;7.50;;;;;;;14.41;88.57;100266.63;5013803;28;20052;-39
2021/10/20 08:02:05;;;;;;;12.45;7.07;;;;;;;14.37;88.19;100255.06;4996019;28;20036;-39
2021/10/20 08:04:30;;;;;;;14.20;7.65;;;;;;;14.44;88.64;100283.56;5013646;28;20061;-36
2021/10/20 08:06:55;;;;;;;15.43;7.38;;;;;;;14.42;88.76;100281.19;5014016;28;20026;-33
2021/10/20 08:09:21;;;;;;;18.33;7.35;;;;;;;14.53;88.44;100278.84;5013591;28;20037;-35
2021/10/20 08:11:46;;;;;;;14.40;7.15;;;;;;;14.54;88.15;100267.44;5013558;28;20084;-34
2021/10/20 08:14:11;;;;;;;18.60;7.25;;;;;;;14.59;88.08;100262.38;5013898;28;20041;-35
2021/10/20 08:16:37;;;;;;;11.45;7.40;;;;;;;14.53;88.20;100245.06;5014063;28;20080;-34
2021/10/20 08:19:02;;;;;;;10.85;7.47;;;;;;;14.64;88.03;100224.28;5014192;28;20061;-34
2021/10/20 08:21:27;;;;;;;11.35;7.32;;;;;;;14.65;87.93;100246.66;5013614;28;20381;-35
2021/10/20 08:23:53;;;;;;;15.70;7.35;;;;;;;14.76;87.65;100239.88;5013761;28;20030;-35
2021/10/20 08:26:18;;;;;;;11.90;7.00;;;;;;;14.88;87.12;100264.06;4995893;28;20028;-35
2021/10/20 08:28:44;;;;;;;14.90;7.57;;;;;;;14.92;87.27;100294.81;5013509;28;20440;-35
2021/10/20 08:31:09;;;;;;;12.30;6.60;;;;;;;15.00;86.75;100286.69;5013336;28;20113;-34
2021/10/20 08:33:34;;;;;;;11.05;7.22;;;;;;;15.03;86.23;100286.22;5013814;28;20022;-34
2021/10/20 08:36:00;;;;;;;10.48;6.80;;;;;;;15.08;86.57;100294.13;4996102;28;20029;-35
2021/10/20 08:38:25;;;;;;;13.25;7.03;;;;;;;15.18;85.95;100291.72;5013460;28;20026;-34
2021/10/20 08:40:51;;;;;;;14.77;7.40;;;;;;;15.43;85.35;100294.06;5013340;28;20026;-35
2021/10/20 08:43:18;;;;;;;12.40;6.75;;;;;;;16.64;81.41;100314.69;5013546;28;20481;-35
2021/10/20 08:45:45;;;;;;;11.85;6.85;;;;;;;16.41;81.07;100296.59;4995850;28;20038;-34
2021/10/20 08:48:13;;;;;;;8.95;6.63;;;;;;;16.28;81.56;100294.28;5014413;28;20029;-33
2021/10/20 08:50:38;;;;;;;15.95;6.82;;;;;;;15.54;84.76;100297.66;5013384;28;20148;-34
2021/10/20 08:53:05;;;;;;;10.15;6.57;;;;;;;15.45;85.02;100292.03;5013642;28;20041;-34
2021/10/20 08:55:31;;;;;;;12.38;6.82;;;;;;;15.45;84.91;100280.81;5013610;28;20101;-34
2021/10/20 08:57:57;;;;;;;9.35;7.18;;;;;;;15.45;85.26;100278.19;5013295;28;20110;-36
2021/10/20 09:00:23;;;;;;;11.93;7.43;;;;;;;15.42;85.52;100289.88;4995759;28;20109;-34
2021/10/20 09:02:49;;;;;;;13.27;7.55;;;;;;;15.55;85.09;100283.63;5013271;28;20022;-36
2021/10/20 09:05:17;;;;;;;11.82;7.70;;;;;;;15.51;85.38;100272.88;4995580;28;20029;-34
2021/10/20 09:07:44;;;;;;;11.82;7.70;;;;;;;15.89;84.13;100270.72;5013108;28;20543;-34
2021/10/20 09:10:10;;;;;;;12.38;7.75;;;;;;;16.21;82.93;100278.81;4995582;28;20053;-34
2021/10/20 09:12:40;;;;;;;14.38;7.53;;;;;;;16.34;81.86;100278.50;5013166;28;20504;-33
2021/10/20 09:15:08;;;;;;;11.80;7.85;;;;;;;16.98;79.71;100266.94;5013775;28;20041;-34
2021/10/20 09:17:47;;;;;;;12.90;8.15;;;;;;;16.99;79.57;100245.78;5013105;28;20500;-35
2021/10/20 09:20:32;;;;;;;11.82;7.72;;;;;;;17.33;78.31;100258.72;5013399;28;20022;-34
2021/10/20 09:23:17;;;;;;;15.25;8.15;;;;;;;16.86;79.78;100259.19;5014261;28;20520;-35
2021/10/20 09:25:57;;;;;;;10.63;8.18;;;;;;;16.51;82.27;100257.63;5013137;28;20110;-34
2021/10/20 09:28:31;;;;;;;15.95;8.18;;;;;;;16.40;82.08;100254.09;4996782;28;20476;-34
2021/10/20 09:30:59;;;;;;;15.05;7.78;;;;;;;16.34;82.39;100259.44;5016891;28;20037;-34
2021/10/20 09:33:29;;;;;;;14.93;8.18;;;;;;;16.21;82.68;100261.34;4998957;28;20109;-35
2021/10/20 09:36:03;;;;;;;14.27;8.73;;;;;;;16.10;83.16;100251.78;5016690;28;20503;-34
2021/10/20 09:38:36;;;;;;;10.77;8.70;;;;;;;16.09;83.43;100239.78;5017090;28;20018;-36
2021/10/20 09:41:06;;;;;;;14.13;8.60;;;;;;;16.09;83.23;100242.38;5016635;28;20026;-34
2021/10/20 09:43:33;;;;;;;14.93;9.00;;;;;;;16.15;83.06;100231.00;4998718;28;20064;-34
2021/10/20 09:46:01;;;;;;;12.05;8.05;;;;;;;16.22;83.13;100221.22;5016309;28;20050;-35
2021/10/20 09:48:26;;;;;;;12.38;8.02;;;;;;;16.23;83.39;100209.00;5016237;28;20025;-35
2021/10/20 09:51:24;;;;;;;14.30;7.65;;;;;;;16.19;83.41;100221.69;5016203;28;20080;-35
2021/10/20 09:53:50;;;;;;;12.50;8.38;;;;;;;16.22;83.52;100226.41;4983361;28;20042;-34
2021/10/20 09:59:37;;;;;;;10.48;7.88;;;;;;;16.16;83.61;100211.72;5016134;28;20041;-34
2021/10/20 10:02:02;;;;;;;11.90;7.85;;;;;;;16.18;83.23;100222.72;5016070;28;20403;-35
2021/10/20 10:04:29;;;;;;;12.45;7.82;;;;;;;16.19;83.28;100202.66;5016529;28;20026;-34
2021/10/20 10:06:55;;;;;;;12.63;7.72;;;;;;;16.20;83.59;100212.84;4998983;28;20516;-35
2021/10/20 10:09:20;;;;;;;10.68;7.60;;;;;;;16.28;82.80;100208.25;5015840;28;20100;-38
2021/10/20 10:11:50;;;;;;;9.52;7.07;;;;;;;16.27;82.88;100209.28;5015843;28;20495;-39
2021/10/20 10:14:18;;;;;;;11.18;7.18;;;;;;;16.30;82.48;100206.22;5016337;28;20037;-37
2021/10/20 10:16:45;;;;;;;10.40;6.90;;;;;;;16.25;83.04;100206.91;5016044;28;20477;-37
2021/10/20 10:19:12;;;;;;;10.93;7.07;;;;;;;16.13;82.24;100177.53;5015783;28;20057;-37
2021/10/20 10:21:42;;;;;;;10.52;7.03;;;;;;;16.38;82.09;100217.03;5015673;28;20029;-38
2021/10/20 10:24:16;;;;;;;10.75;6.43;;;;;;;16.31;82.46;100210.38;4998129;28;20030;-37
2021/10/20 10:27:08;;;;;;;10.75;6.40;;;;;;;16.40;81.62;100224.59;5015565;28;20084;-33
2021/10/20 10:29:45;;;;;;;9.35;5.90;;;;;;;16.41;81.56;100207.94;4997805;28;20108;-35
2021/10/20 10:32:11;;;;;;;8.77;6.50;;;;;;;16.41;81.71;100220.97;5016244;28;20025;-35
2021/10/20 10:34:46;;;;;;;9.25;6.03;;;;;;;16.45;81.87;100216.84;5015407;28;20033;-34
2021/10/20 10:37:31;;;;;;;9.40;6.00;;;;;;;16.52;81.08;100206.28;5015649;28;20021;-34
2021/10/20 10:40:01;;;;;;;10.57;6.18;;;;;;;16.55;81.32;100222.22;5015213;28;20025;-35
2021/10/20 10:42:36;;;;;;;14.27;5.80;;;;;;;16.64;80.60;100226.00;5015019;28;20065;-34
2021/10/20 10:45:12;;;;;;;12.18;6.00;;;;;;;16.62;80.83;100230.66;5015520;28;20094;-34
2021/10/20 10:47:57;;;;;;;12.55;5.93;;;;;;;16.84;79.94;100214.28;4997515;28;20033;-34
2021/10/20 10:50:53;;;;;;;9.95;5.45;;;;;;;17.05;79.02;100216.09;5015121;28;20038;-34
2021/10/20 10:53:27;;;;;;;9.90;5.70;;;;;;;17.23;78.52;100219.44;4997431;28;20026;-34
2021/10/20 10:56:09;;;;;;;12.68;5.43;;;;;;;17.16;78.73;100216.22;5015310;28;20099;-36
2021/10/20 10:59:02;;;;;;;12.43;5.60;;;;;;;17.14;78.78;100214.63;5015164;28;20105;-34
2021/10/20 11:01:49;;;;;;;11.55;5.75;;;;;;;16.97;79.72;100220.97;5014814;28;20030;-37
2021/10/20 11:04:21;;;;;;;10.65;5.50;;;;;;;16.98;79.56;100207.69;5014788;28;20500;-34
2021/10/20 11:06:49;;;;;;;12.10;5.80;;;;;;;16.95;79.44;100205.56;5015088;28;20036;-35
2021/10/20 11:09:16;;;;;;;9.98;5.40;;;;;;;16.92;79.84;100219.88;4997761;28;20034;-35
2021/10/20 11:11:55;;;;;;;14.18;5.85;;;;;;;16.58;80.77;100187.84;5014729;28;20033;-34
2021/10/20 11:14:23;;;;;;;12.85;5.47;;;;;;;16.71;80.94;100207.56;5014971;28;20033;-34
2021/10/20 11:17:04;;;;;;;10.20;5.40;;;;;;;16.75;80.15;100200.06;4997062;28;20026;-34
2021/10/20 11:19:30;;;;;;;16.95;5.60;;;;;;;16.80;80.17;100193.13;5015027;28;20021;-34